sensor_id;sensor_type;location;lat;lon;timestamp;pressure;altitude;pressure_sealevel;temperature;humidity
47785;BME280;35233;55.686;37.848;2022-10-15T00:00:22;100573.97;;;15.36;53.11
47785;BME280;35233;55.686;37.848;2022-10-15T00:02:47;100566.09;;;15.33;53.00
47785;BME280;35233;55.686;37.848;2022-10-15T00:05:13;100576.69;;;15.35;53.17
47785;BME280;35233;55.686;37.848;2022-10-15T00:07:38;100573.97;;;15.36;53.12
47785;BME280;35233;55.686;37.848;2022-10-15T00:10:05;100569.66;;;15.32;52.94
47785;BME280;35233;55.686;37.848;2022-10-15T00:12:31;100581.09;;;15.36;52.89
47785;BME280;35233;55.686;37.848;2022-10-15T00:14:57;100578.44;;;15.36;53.01
47785;BME280;35233;55.686;37.848;2022-10-15T00:17:22;100568.75;;;15.33;53.00
47785;BME280;35233;55.686;37.848;2022-10-15T00:19:48;100570.53;;;15.33;53.02
47785;BME280;35233;55.686;37.848;2022-10-15T00:22:13;100575.84;;;15.33;52.96
47785;BME280;35233;55.686;37.848;2022-10-15T00:24:39;100577.66;;;15.32;52.97
47785;BME280;35233;55.686;37.848;2022-10-15T00:27:05;100580.31;;;15.32;53.11
47785;BME280;35233;55.686;37.848;2022-10-15T00:29:30;100577.66;;;15.32;53.11
47785;BME280;35233;55.686;37.848;2022-10-15T00:31:55;100571.63;;;15.27;53.16
47785;BME280;35233;55.686;37.848;2022-10-15T00:34:21;100576.03;;;15.28;53.16
47785;BME280;35233;55.686;37.848;2022-10-15T00:36:49;100580.47;;;15.28;52.97
47785;BME280;35233;55.686;37.848;2022-10-15T00:39:14;100578.78;;;15.25;53.17
47785;BME280;35233;55.686;37.848;2022-10-15T00:41:42;100575.16;;;15.28;52.91
47785;BME280;35233;55.686;37.848;2022-10-15T00:46:47;100569.88;;;15.26;53.29
47785;BME280;35233;55.686;37.848;2022-10-15T00:49:17;100571.63;;;15.27;53.17
47785;BME280;35233;55.686;37.848;2022-10-15T00:51:49;100569.06;;;15.24;53.40
47785;BME280;35233;55.686;37.848;2022-10-15T00:54:18;100566.34;;;15.26;53.08
47785;BME280;35233;55.686;37.848;2022-10-15T00:56:45;100576.06;;;15.27;52.95
47785;BME280;35233;55.686;37.848;2022-10-15T00:59:12;100573.47;;;15.25;53.21
47785;BME280;35233;55.686;37.848;2022-10-15T01:01:39;100574.38;;;15.24;53.10
47785;BME280;35233;55.686;37.848;2022-10-15T01:04:06;100585.03;;;15.24;53.07
47785;BME280;35233;55.686;37.848;2022-10-15T01:06:33;100582.41;;;15.23;53.04
47785;BME280;35233;55.686;37.848;2022-10-15T01:08:59;100585.03;;;15.24;53.07
47785;BME280;35233;55.686;37.848;2022-10-15T01:11:44;100586.81;;;15.24;53.06
47785;BME280;35233;55.686;37.848;2022-10-15T01:16:48;100571.78;;;15.21;53.23
47785;BME280;35233;55.686;37.848;2022-10-15T01:27:34;100582.41;;;15.23;53.23
47785;BME280;35233;55.686;37.848;2022-10-15T01:30:24;100579.78;;;15.21;53.15
47785;BME280;35233;55.686;37.848;2022-10-15T01:32:56;100593.91;;;15.23;52.96
47785;BME280;35233;55.686;37.848;2022-10-15T01:35:36;100593.03;;;15.24;53.22
47785;BME280;35233;55.686;37.848;2022-10-15T01:41:21;100586.88;;;15.22;52.84
47785;BME280;35233;55.686;37.848;2022-10-15T01:44:03;100588.69;;;15.20;52.96
47785;BME280;35233;55.686;37.848;2022-10-15T01:46:49;100590.44;;;15.21;53.06
47785;BME280;35233;55.686;37.848;2022-10-15T01:49:19;100590.53;;;15.18;53.11
47785;BME280;35233;55.686;37.848;2022-10-15T01:51:46;100584.41;;;15.16;53.18
47785;BME280;35233;55.686;37.848;2022-10-15T01:54:15;100594.88;;;15.21;53.22
47785;BME280;35233;55.686;37.848;2022-10-15T01:56:45;100591.38;;;15.20;53.01
47785;BME280;35233;55.686;37.848;2022-10-15T01:59:19;100585.09;;;15.21;53.27
47785;BME280;35233;55.686;37.848;2022-10-15T02:01:46;100588.81;;;15.17;53.11
47785;BME280;35233;55.686;37.848;2022-10-15T02:04:23;100602.06;;;15.19;53.18
47785;BME280;35233;55.686;37.848;2022-10-15T02:09:44;100602.00;;;15.20;52.92
47785;BME280;35233;55.686;37.848;2022-10-15T02:13:10;100586.91;;;15.21;53.11
47785;BME280;35233;55.686;37.848;2022-10-15T02:16:07;100592.22;;;15.21;53.03
47785;BME280;35233;55.686;37.848;2022-10-15T02:25:55;100599.44;;;15.17;53.18
47785;BME280;35233;55.686;37.848;2022-10-15T02:28:24;100611.78;;;15.20;53.07
47785;BME280;35233;55.686;37.848;2022-10-15T02:30:53;100606.47;;;15.20;52.95
47785;BME280;35233;55.686;37.848;2022-10-15T02:33:22;100610.94;;;15.19;52.99
47785;BME280;35233;55.686;37.848;2022-10-15T02:35:50;100610.94;;;15.19;53.00
47785;BME280;35233;55.686;37.848;2022-10-15T02:38:18;100606.59;;;15.15;53.16
47785;BME280;35233;55.686;37.848;2022-10-15T02:40:45;100611.88;;;15.16;52.88
47785;BME280;35233;55.686;37.848;2022-10-15T02:43:13;100613.63;;;15.17;53.17
47785;BME280;35233;55.686;37.848;2022-10-15T02:45:39;100615.41;;;15.17;52.95
47785;BME280;35233;55.686;37.848;2022-10-15T02:48:05;100610.06;;;15.19;53.03
47785;BME280;35233;55.686;37.848;2022-10-15T02:50:31;100617.16;;;15.18;53.21
47785;BME280;35233;55.686;37.848;2022-10-15T02:52:56;100609.25;;;15.15;53.09
47785;BME280;35233;55.686;37.848;2022-10-15T02:55:21;100615.41;;;15.17;53.12
47785;BME280;35233;55.686;37.848;2022-10-15T02:57:47;100620.81;;;15.15;53.29
47785;BME280;35233;55.686;37.848;2022-10-15T03:00:13;100609.44;;;15.10;53.23
47785;BME280;35233;55.686;37.848;2022-10-15T03:02:42;100613.69;;;15.16;53.08
47785;BME280;35233;55.686;37.848;2022-10-15T03:05:07;100622.56;;;15.15;53.01
47785;BME280;35233;55.686;37.848;2022-10-15T03:07:33;100625.19;;;15.16;53.15
47785;BME280;35233;55.686;37.848;2022-10-15T03:09:58;100618.28;;;15.11;53.18
47785;BME280;35233;55.686;37.848;2022-10-15T03:12:24;100619.03;;;15.14;53.13
47785;BME280;35233;55.686;37.848;2022-10-15T03:14:50;100630.56;;;15.15;53.05
47785;BME280;35233;55.686;37.848;2022-10-15T03:17:16;100624.44;;;15.13;53.14
47785;BME280;35233;55.686;37.848;2022-10-15T03:19:41;100627.03;;;15.14;53.16
47785;BME280;35233;55.686;37.848;2022-10-15T03:22:07;100626.91;;;15.19;53.21
47785;BME280;35233;55.686;37.848;2022-10-15T03:24:32;100626.84;;;15.21;53.03
47785;BME280;35233;55.686;37.848;2022-10-15T03:26:58;100620.75;;;15.17;53.11
47785;BME280;35233;55.686;37.848;2022-10-15T03:29:23;100625.97;;;15.20;53.27
47785;BME280;35233;55.686;37.848;2022-10-15T03:31:49;100625.03;;;15.21;53.25
47785;BME280;35233;55.686;37.848;2022-10-15T03:34:15;100631.25;;;15.22;53.19
47785;BME280;35233;55.686;37.848;2022-10-15T03:36:40;100625.97;;;15.20;53.04
47785;BME280;35233;55.686;37.848;2022-10-15T03:39:05;100626.78;;;15.22;53.15
47785;BME280;35233;55.686;37.848;2022-10-15T03:41:32;100626.78;;;15.22;53.25
47785;BME280;35233;55.686;37.848;2022-10-15T03:44:02;100635.69;;;15.21;53.36
47785;BME280;35233;55.686;37.848;2022-10-15T03:46:28;100633.91;;;15.22;53.10
47785;BME280;35233;55.686;37.848;2022-10-15T03:48:54;100623.59;;;15.11;53.12
47785;BME280;35233;55.686;37.848;2022-10-15T03:51:19;100630.47;;;15.18;53.17
47785;BME280;35233;55.686;37.848;2022-10-15T03:53:45;100631.28;;;15.20;53.10
47785;BME280;35233;55.686;37.848;2022-10-15T03:56:10;100625.22;;;15.15;53.16
47785;BME280;35233;55.686;37.848;2022-10-15T03:58:36;100620.06;;;15.10;53.25
47785;BME280;35233;55.686;37.848;2022-10-15T04:01:06;100633.22;;;15.15;53.24
47785;BME280;35233;55.686;37.848;2022-10-15T04:03:32;100637.56;;;15.17;53.10
47785;BME280;35233;55.686;37.848;2022-10-15T04:05:57;100631.38;;;15.17;53.25
47785;BME280;35233;55.686;37.848;2022-10-15T04:08:22;100635.78;;;15.18;53.44
47785;BME280;35233;55.686;37.848;2022-10-15T04:10:49;100634.00;;;15.19;53.17
47785;BME280;35233;55.686;37.848;2022-10-15T04:13:15;100635.78;;;15.18;53.31
47785;BME280;35233;55.686;37.848;2022-10-15T04:15:41;100638.50;;;15.16;53.13
47785;BME280;35233;55.686;37.848;2022-10-15T04:18:06;100639.28;;;15.20;53.22
47785;BME280;35233;55.686;37.848;2022-10-15T04:20:32;100636.72;;;15.17;52.86
47785;BME280;35233;55.686;37.848;2022-10-15T04:22:57;100643.72;;;15.20;53.16
47785;BME280;35233;55.686;37.848;2022-10-15T04:25:23;100633.19;;;15.16;53.10
47785;BME280;35233;55.686;37.848;2022-10-15T04:27:49;100634.91;;;15.17;53.00
47785;BME280;35233;55.686;37.848;2022-10-15T04:30:14;100638.41;;;15.20;53.15
47785;BME280;35233;55.686;37.848;2022-10-15T04:32:40;100647.16;;;15.23;53.10
47785;BME280;35233;55.686;37.848;2022-10-15T04:35:05;100640.88;;;15.26;52.98
47785;BME280;35233;55.686;37.848;2022-10-15T04:37:35;100655.00;;;15.28;53.30
47785;BME280;35233;55.686;37.848;2022-10-15T04:40:00;100640.84;;;15.27;53.07
47785;BME280;35233;55.686;37.848;2022-10-15T04:42:28;100650.56;;;15.28;53.24
47785;BME280;35233;55.686;37.848;2022-10-15T04:44:53;100640.97;;;15.23;53.26
47785;BME280;35233;55.686;37.848;2022-10-15T04:47:19;100648.66;;;15.32;53.13
47785;BME280;35233;55.686;37.848;2022-10-15T04:49:44;100650.47;;;15.31;52.92
47785;BME280;35233;55.686;37.848;2022-10-15T04:52:10;100657.50;;;15.32;52.87
47785;BME280;35233;55.686;37.848;2022-10-15T04:54:35;100640.84;;;15.27;52.79
47785;BME280;35233;55.686;37.848;2022-10-15T04:57:02;100646.81;;;15.34;52.93
47785;BME280;35233;55.686;37.848;2022-10-15T04:59:28;100652.25;;;15.31;52.85
47785;BME280;35233;55.686;37.848;2022-10-15T05:01:53;100654.72;;;15.37;52.75
47785;BME280;35233;55.686;37.848;2022-10-15T05:04:19;100654.75;;;15.35;52.75
47785;BME280;35233;55.686;37.848;2022-10-15T05:06:44;100657.38;;;15.37;52.93
47785;BME280;35233;55.686;37.848;2022-10-15T05:09:10;100659.06;;;15.39;52.70
47785;BME280;35233;55.686;37.848;2022-10-15T05:11:36;100648.47;;;15.38;52.86
47785;BME280;35233;55.686;37.848;2022-10-15T05:14:02;100658.97;;;15.43;53.05
47785;BME280;35233;55.686;37.848;2022-10-15T05:16:29;100659.84;;;15.43;52.88
47785;BME280;35233;55.686;37.848;2022-10-15T05:18:58;100670.53;;;15.42;52.70
47785;BME280;35233;55.686;37.848;2022-10-15T05:21:24;100671.34;;;15.44;52.87
47785;BME280;35233;55.686;37.848;2022-10-15T05:23:50;100665.13;;;15.45;52.76
47785;BME280;35233;55.686;37.848;2022-10-15T05:26:18;100674.78;;;15.47;52.90
47785;BME280;35233;55.686;37.848;2022-10-15T05:28:44;100670.28;;;15.49;52.46
47785;BME280;35233;55.686;37.848;2022-10-15T05:31:12;100667.63;;;15.49;52.68
47785;BME280;35233;55.686;37.848;2022-10-15T05:33:38;100664.19;;;15.46;52.70
47785;BME280;35233;55.686;37.848;2022-10-15T05:36:12;100673.88;;;15.48;52.46
47785;BME280;35233;55.686;37.848;2022-10-15T05:38:40;100667.72;;;15.46;52.78
47785;BME280;35233;55.686;37.848;2022-10-15T05:41:08;100678.28;;;15.49;52.49
47785;BME280;35233;55.686;37.848;2022-10-15T05:43:34;100672.13;;;15.47;52.56
47785;BME280;35233;55.686;37.848;2022-10-15T05:46:00;100677.31;;;15.52;52.63
47785;BME280;35233;55.686;37.848;2022-10-15T05:48:28;100678.16;;;15.54;52.55
47785;BME280;35233;55.686;37.848;2022-10-15T05:51:00;100664.88;;;15.52;52.59
47785;BME280;35233;55.686;37.848;2022-10-15T05:53:39;100660.66;;;15.45;52.50
47785;BME280;35233;55.686;37.848;2022-10-15T05:56:08;100687.72;;;15.59;52.15
47785;BME280;35233;55.686;37.848;2022-10-15T05:58:35;100679.75;;;15.59;52.49
47785;BME280;35233;55.686;37.848;2022-10-15T06:01:09;100672.81;;;15.54;52.40
47785;BME280;35233;55.686;37.848;2022-10-15T06:03:35;100659.81;;;15.45;52.37
47785;BME280;35233;55.686;37.848;2022-10-15T06:06:01;100683.47;;;15.54;52.29
47785;BME280;35233;55.686;37.848;2022-10-15T06:08:29;100696.38;;;15.66;52.26
47785;BME280;35233;55.686;37.848;2022-10-15T06:10:55;100704.34;;;15.68;52.20
47785;BME280;35233;55.686;37.848;2022-10-15T06:13:23;100691.03;;;15.68;52.12
47785;BME280;35233;55.686;37.848;2022-10-15T06:15:48;100693.66;;;15.69;52.22
47785;BME280;35233;55.686;37.848;2022-10-15T06:18:21;100700.56;;;15.75;51.87
47785;BME280;35233;55.686;37.848;2022-10-15T06:20:51;100703.13;;;15.78;52.00
47785;BME280;35233;55.686;37.848;2022-10-15T06:23:20;100690.03;;;15.72;52.01
47785;BME280;35233;55.686;37.848;2022-10-15T06:25:46;100684.78;;;15.67;51.81
47785;BME280;35233;55.686;37.848;2022-10-15T06:28:22;100697.16;;;15.71;52.03
47785;BME280;35233;55.686;37.848;2022-10-15T06:30:47;100696.13;;;15.75;51.93
47785;BME280;35233;55.686;37.848;2022-10-15T06:33:13;100703.06;;;15.79;51.70
47785;BME280;35233;55.686;37.848;2022-10-15T06:35:40;100695.91;;;15.81;51.73
47785;BME280;35233;55.686;37.848;2022-10-15T06:38:09;100694.78;;;15.89;51.68
47785;BME280;35233;55.686;37.848;2022-10-15T06:40:38;100699.16;;;15.91;51.72
47785;BME280;35233;55.686;37.848;2022-10-15T06:43:11;100685.31;;;15.80;51.73
47785;BME280;35233;55.686;37.848;2022-10-15T06:45:39;100706.25;;;15.91;51.73
47785;BME280;35233;55.686;37.848;2022-10-15T06:48:06;100700.06;;;15.90;51.49
47785;BME280;35233;55.686;37.848;2022-10-15T06:50:33;100705.38;;;15.90;51.61
47785;BME280;35233;55.686;37.848;2022-10-15T06:52:59;100704.50;;;15.91;51.63
47785;BME280;35233;55.686;37.848;2022-10-15T06:55:25;100713.34;;;15.92;51.62
47785;BME280;35233;55.686;37.848;2022-10-15T06:57:51;100706.25;;;15.91;51.67
47785;BME280;35233;55.686;37.848;2022-10-15T07:00:16;100708.13;;;15.89;51.58
47785;BME280;35233;55.686;37.848;2022-10-15T07:02:42;100710.81;;;15.87;51.75
47785;BME280;35233;55.686;37.848;2022-10-15T07:05:08;100712.56;;;15.88;51.54
47785;BME280;35233;55.686;37.848;2022-10-15T07:07:34;100713.34;;;15.92;51.64
47785;BME280;35233;55.686;37.848;2022-10-15T07:09:59;100704.31;;;15.96;51.34
47785;BME280;35233;55.686;37.848;2022-10-15T07:12:25;100700.56;;;16.01;51.45
47785;BME280;35233;55.686;37.848;2022-10-15T07:14:51;100704.88;;;16.05;51.31
47785;BME280;35233;55.686;37.848;2022-10-15T07:17:16;100714.44;;;16.11;51.17
47785;BME280;35233;55.686;37.848;2022-10-15T07:19:42;100720.56;;;16.15;51.33
47785;BME280;35233;55.686;37.848;2022-10-15T07:22:09;100721.44;;;16.15;51.17
47785;BME280;35233;55.686;37.848;2022-10-15T07:24:34;100718.00;;;16.12;51.26
47785;BME280;35233;55.686;37.848;2022-10-15T07:27:00;100718.91;;;16.11;51.27
47785;BME280;35233;55.686;37.848;2022-10-15T07:29:26;100718.00;;;16.12;51.37
47785;BME280;35233;55.686;37.848;2022-10-15T07:31:51;100726.03;;;16.10;51.32
47785;BME280;35233;55.686;37.848;2022-10-15T07:34:17;100726.88;;;16.12;51.40
47785;BME280;35233;55.686;37.848;2022-10-15T07:36:43;100734.88;;;16.12;51.22
47785;BME280;35233;55.686;37.848;2022-10-15T07:39:09;100735.63;;;16.16;51.18
47785;BME280;35233;55.686;37.848;2022-10-15T07:41:34;100737.44;;;16.15;51.17
47785;BME280;35233;55.686;37.848;2022-10-15T07:44:02;100734.66;;;16.18;51.38
47785;BME280;35233;55.686;37.848;2022-10-15T07:46:28;100740.81;;;16.20;51.23
47785;BME280;35233;55.686;37.848;2022-10-15T07:48:53;100742.66;;;16.18;51.06
47785;BME280;35233;55.686;37.848;2022-10-15T07:51:19;100742.56;;;16.21;51.04
47785;BME280;35233;55.686;37.848;2022-10-15T07:53:45;100744.38;;;16.19;51.05
47785;BME280;35233;55.686;37.848;2022-10-15T07:56:12;100737.31;;;16.18;51.05
47785;BME280;35233;55.686;37.848;2022-10-15T07:58:38;100741.56;;;16.24;51.18
47785;BME280;35233;55.686;37.848;2022-10-15T08:01:06;100737.09;;;16.24;51.09
47785;BME280;35233;55.686;37.848;2022-10-15T08:03:32;100744.13;;;16.27;51.06
47785;BME280;35233;55.686;37.848;2022-10-15T08:06:05;100751.28;;;16.26;51.03
47785;BME280;35233;55.686;37.848;2022-10-15T08:08:32;100737.88;;;16.28;50.98
47785;BME280;35233;55.686;37.848;2022-10-15T08:10:58;100745.84;;;16.29;50.81
47785;BME280;35233;55.686;37.848;2022-10-15T08:13:28;100751.09;;;16.31;51.04
47785;BME280;35233;55.686;37.848;2022-10-15T08:15:53;100740.53;;;16.28;50.87
47785;BME280;35233;55.686;37.848;2022-10-15T08:18:19;100738.69;;;16.30;50.86
47785;BME280;35233;55.686;37.848;2022-10-15T08:20:44;100747.41;;;16.35;50.94
47785;BME280;35233;55.686;37.848;2022-10-15T08:23:14;100744.75;;;16.35;50.89
47785;BME280;35233;55.686;37.848;2022-10-15T08:25:40;100743.78;;;16.38;50.75
47785;BME280;35233;55.686;37.848;2022-10-15T08:28:06;100742.97;;;16.34;50.75
47785;BME280;35233;55.686;37.848;2022-10-15T08:30:34;100749.09;;;16.38;50.75
47785;BME280;35233;55.686;37.848;2022-10-15T08:33:00;100746.44;;;16.38;51.12
47785;BME280;35233;55.686;37.848;2022-10-15T08:35:25;100746.44;;;16.38;50.86
47785;BME280;35233;55.686;37.848;2022-10-15T08:37:54;100742.75;;;16.40;50.85
47785;BME280;35233;55.686;37.848;2022-10-15T08:40:22;100751.56;;;16.44;50.71
47785;BME280;35233;55.686;37.848;2022-10-15T08:42:48;100755.91;;;16.46;50.79
47785;BME280;35233;55.686;37.848;2022-10-15T08:45:30;100754.91;;;16.49;50.69
47785;BME280;35233;55.686;37.848;2022-10-15T08:48:05;100756.72;;;16.48;50.84
47785;BME280;35233;55.686;37.848;2022-10-15T08:50:58;100770.91;;;16.49;50.73
47785;BME280;35233;55.686;37.848;2022-10-15T08:53:25;100761.31;;;16.43;50.92
47785;BME280;35233;55.686;37.848;2022-10-15T08:55:54;100760.34;;;16.46;50.86
47785;BME280;35233;55.686;37.848;2022-10-15T08:58:30;100767.34;;;16.50;50.78
47785;BME280;35233;55.686;37.848;2022-10-15T09:04:31;100764.47;;;16.56;50.80
47785;BME280;35233;55.686;37.848;2022-10-15T09:07:25;100764.47;;;16.56;50.51
47785;BME280;35233;55.686;37.848;2022-10-15T09:13:07;100763.41;;;16.60;50.58
47785;BME280;35233;55.686;37.848;2022-10-15T09:15:47;100765.94;;;16.65;50.59
47785;BME280;35233;55.686;37.848;2022-10-15T09:18:21;100765.06;;;16.64;50.51
47785;BME280;35233;55.686;37.848;2022-10-15T09:20:49;100764.13;;;16.65;50.63
47785;BME280;35233;55.686;37.848;2022-10-15T09:23:24;100766.75;;;16.67;50.56
47785;BME280;35233;55.686;37.848;2022-10-15T09:31:23;100762.97;;;16.72;50.39
47785;BME280;35233;55.686;37.848;2022-10-15T09:33:54;100774.34;;;16.79;50.50
47785;BME280;35233;55.686;37.848;2022-10-15T09:43:51;100767.81;;;16.88;50.05
47785;BME280;35233;55.686;37.848;2022-10-15T09:46:19;100775.59;;;16.94;50.02
47785;BME280;35233;55.686;37.848;2022-10-15T09:51:31;100763.50;;;17.07;49.78
47785;BME280;35233;55.686;37.848;2022-10-15T09:54:08;100764.97;;;17.16;49.54
47785;BME280;35233;55.686;37.848;2022-10-15T09:56:50;100767.47;;;17.20;49.37
47785;BME280;35233;55.686;37.848;2022-10-15T09:59:19;100761.03;;;17.26;49.37
47785;BME280;35233;55.686;37.848;2022-10-15T10:02:00;100754.06;;;17.22;49.31
47785;BME280;35233;55.686;37.848;2022-10-15T10:04:28;100756.44;;;17.30;49.31
47785;BME280;35233;55.686;37.848;2022-10-15T10:06:56;100752.94;;;17.28;49.20
47785;BME280;35233;55.686;37.848;2022-10-15T10:10:06;100759.19;;;17.28;49.28
47785;BME280;35233;55.686;37.848;2022-10-15T10:12:34;100755.72;;;17.25;49.37
47785;BME280;35233;55.686;37.848;2022-10-15T10:15:07;100762.94;;;17.23;49.50
47785;BME280;35233;55.686;37.848;2022-10-15T10:17:52;100758.63;;;17.18;49.57
47785;BME280;35233;55.686;37.848;2022-10-15T10:20:20;100754.34;;;17.14;49.63
47785;BME280;35233;55.686;37.848;2022-10-15T10:22:58;100755.22;;;17.15;49.70
47785;BME280;35233;55.686;37.848;2022-10-15T10:27:54;100751.81;;;17.11;49.76
47785;BME280;35233;55.686;37.848;2022-10-15T10:30:20;100749.38;;;17.05;49.78
47785;BME280;35233;55.686;37.848;2022-10-15T10:32:47;100750.28;;;17.04;49.98
47785;BME280;35233;55.686;37.848;2022-10-15T10:35:21;100763.81;;;17.00;50.04
47785;BME280;35233;55.686;37.848;2022-10-15T10:37:47;100757.72;;;16.96;50.18
47785;BME280;35233;55.686;37.848;2022-10-15T10:40:28;100762.16;;;16.95;50.08
47785;BME280;35233;55.686;37.848;2022-10-15T10:43:10;100761.38;;;16.93;50.28
47785;BME280;35233;55.686;37.848;2022-10-15T10:45:37;100765.88;;;16.91;50.30
47785;BME280;35233;55.686;37.848;2022-10-15T10:51:23;100759.81;;;16.88;50.41
47785;BME280;35233;55.686;37.848;2022-10-15T10:54:03;100758.00;;;16.88;50.48
47785;BME280;35233;55.686;37.848;2022-10-15T10:56:38;100758.94;;;16.87;50.42
47785;BME280;35233;55.686;37.848;2022-10-15T10:59:15;100759.59;;;16.92;50.24
47785;BME280;35233;55.686;37.848;2022-10-15T11:01:43;100759.72;;;16.89;50.37
47785;BME280;35233;55.686;37.848;2022-10-15T11:04:17;100760.44;;;16.94;50.33
47785;BME280;35233;55.686;37.848;2022-10-15T11:18:15;100762.88;;;17.01;50.36
47785;BME280;35233;55.686;37.848;2022-10-15T11:31:45;100747.44;;;17.09;50.03
47785;BME280;35233;55.686;37.848;2022-10-15T11:36:54;100748.06;;;17.15;50.05
47785;BME280;35233;55.686;37.848;2022-10-15T11:42:17;100751.44;;;17.20;49.95
47785;BME280;35233;55.686;37.848;2022-10-15T11:50:29;100745.38;;;17.17;50.08
47785;BME280;35233;55.686;37.848;2022-10-15T11:53:00;100748.81;;;17.19;49.92
47785;BME280;35233;55.686;37.848;2022-10-15T11:58:15;100746.22;;;17.17;49.92
47785;BME280;35233;55.686;37.848;2022-10-15T12:00:49;100742.00;;;17.12;50.13
47785;BME280;35233;55.686;37.848;2022-10-15T12:03:22;100743.91;;;17.08;50.21
47785;BME280;35233;55.686;37.848;2022-10-15T12:05:59;100735.06;;;17.06;50.23
47785;BME280;35233;55.686;37.848;2022-10-15T12:08:36;100744.94;;;17.04;50.40
47785;BME280;35233;55.686;37.848;2022-10-15T12:14:04;100741.47;;;17.02;50.20
47785;BME280;35233;55.686;37.848;2022-10-15T12:17:29;100733.63;;;16.97;50.39
47785;BME280;35233;55.686;37.848;2022-10-15T12:19:41;100738.97;;;16.97;50.25
47785;BME280;35233;55.686;37.848;2022-10-15T12:22:10;100737.16;;;16.98;50.33
47785;BME280;35233;55.686;37.848;2022-10-15T12:29:43;100732.88;;;16.94;50.53
47785;BME280;35233;55.686;37.848;2022-10-15T12:32:26;100733.81;;;16.93;50.49
47785;BME280;35233;55.686;37.848;2022-10-15T12:34:54;100735.59;;;16.92;50.62
47785;BME280;35233;55.686;37.848;2022-10-15T12:37:23;100732.16;;;16.89;50.69
47785;BME280;35233;55.686;37.848;2022-10-15T12:40:02;100725.91;;;16.90;50.40
47785;BME280;35233;55.686;37.848;2022-10-15T12:42:31;100732.13;;;16.90;50.61
47785;BME280;35233;55.686;37.848;2022-10-15T12:45:00;100727.53;;;16.94;50.72
47785;BME280;35233;55.686;37.848;2022-10-15T12:47:48;100730.13;;;16.95;50.42
47785;BME280;35233;55.686;37.848;2022-10-15T12:50:24;100736.19;;;17.01;50.28
47785;BME280;35233;55.686;37.848;2022-10-15T12:52:59;100739.59;;;17.04;50.36
47785;BME280;35233;55.686;37.848;2022-10-15T12:55:28;100731.53;;;17.06;50.38
47785;BME280;35233;55.686;37.848;2022-10-15T13:00:38;100733.16;;;17.10;50.36
47785;BME280;35233;55.686;37.848;2022-10-15T13:05:40;100731.59;;;17.04;50.48
47785;BME280;35233;55.686;37.848;2022-10-15T13:08:12;100732.41;;;17.06;50.41
47785;BME280;35233;55.686;37.848;2022-10-15T13:10:54;100737.81;;;17.05;50.37
47785;BME280;35233;55.686;37.848;2022-10-15T13:13:27;100737.81;;;17.05;50.49
47785;BME280;35233;55.686;37.848;2022-10-15T13:15:59;100736.06;;;17.04;50.29
47785;BME280;35233;55.686;37.848;2022-10-15T13:18:27;100736.94;;;17.04;50.57
47785;BME280;35233;55.686;37.848;2022-10-15T13:20:54;100738.81;;;17.02;50.51
47785;BME280;35233;55.686;37.848;2022-10-15T13:23:22;100741.59;;;16.99;50.55
47785;BME280;35233;55.686;37.848;2022-10-15T13:25:49;100737.22;;;16.96;50.77
47785;BME280;35233;55.686;37.848;2022-10-15T13:28:36;100735.53;;;16.94;50.80
47785;BME280;35233;55.686;37.848;2022-10-15T13:31:05;100729.38;;;16.92;50.90
47785;BME280;35233;55.686;37.848;2022-10-15T13:33:37;100728.63;;;16.88;50.83
47785;BME280;35233;55.686;37.848;2022-10-15T13:36:06;100738.38;;;16.89;50.80
47785;BME280;35233;55.686;37.848;2022-10-15T13:38:32;100729.56;;;16.87;50.76
47785;BME280;35233;55.686;37.848;2022-10-15T13:40:58;100733.16;;;16.86;51.08
47785;BME280;35233;55.686;37.848;2022-10-15T13:43:25;100735.81;;;16.86;51.01
47785;BME280;35233;55.686;37.848;2022-10-15T13:45:56;100735.91;;;16.85;50.86
47785;BME280;35233;55.686;37.848;2022-10-15T13:48:25;100729.50;;;16.89;50.90
47785;BME280;35233;55.686;37.848;2022-10-15T13:50:52;100726.91;;;16.87;51.00
47785;BME280;35233;55.686;37.848;2022-10-15T13:55:46;100740.19;;;16.89;50.87
47785;BME280;35233;55.686;37.848;2022-10-15T14:03:26;100741.38;;;16.80;51.26
47785;BME280;35233;55.686;37.848;2022-10-15T14:05:53;100750.25;;;16.81;51.11
47785;BME280;35233;55.686;37.848;2022-10-15T14:08:31;100747.69;;;16.78;51.12
47785;BME280;35233;55.686;37.848;2022-10-15T14:10:58;100750.53;;;16.73;51.35
47785;BME280;35233;55.686;37.848;2022-10-15T14:13:25;100752.41;;;16.69;51.24
47785;BME280;35233;55.686;37.848;2022-10-15T14:18:34;100760.53;;;16.66;51.41
47785;BME280;35233;55.686;37.848;2022-10-15T14:21:01;100758.81;;;16.64;51.67
47785;BME280;35233;55.686;37.848;2022-10-15T14:23:27;100757.28;;;16.58;51.68
47785;BME280;35233;55.686;37.848;2022-10-15T14:26:03;100759.06;;;16.58;51.63
47785;BME280;35233;55.686;37.848;2022-10-15T14:28:30;100757.28;;;16.58;51.65
47785;BME280;35233;55.686;37.848;2022-10-15T14:30:57;100765.41;;;16.55;51.72
47785;BME280;35233;55.686;37.848;2022-10-15T14:38:30;100762.91;;;16.49;51.91
47785;BME280;35233;55.686;37.848;2022-10-15T14:41:01;100770.16;;;16.45;51.92
47785;BME280;35233;55.686;37.848;2022-10-15T14:43:31;100774.66;;;16.43;52.08
47785;BME280;35233;55.686;37.848;2022-10-15T14:45:59;100771.19;;;16.41;52.09
47785;BME280;35233;55.686;37.848;2022-10-15T14:48:31;100765.03;;;16.39;52.13
47785;BME280;35233;55.686;37.848;2022-10-15T14:50:59;100768.63;;;16.38;52.28